sensor_id;sensor_type;location;lat;lon;timestamp;P1;durP1;ratioP1;P2;durP2;ratioP2
2656;SDS011;1338;48.176;11.792;2024-02-14T00:01:12;3.10;;;2.83;;
2656;SDS011;1338;48.176;11.792;2024-02-14T00:03:40;3.30;;;2.87;;
2656;SDS011;1338;48.176;11.792;2024-02-14T00:06:10;2.83;;;2.57;;
2656;SDS011;1338;48.176;11.792;2024-02-14T00:08:41;3.27;;;2.90;;
2656;SDS011;1338;48.176;11.792;2024-02-14T00:11:09;3.80;;;3.50;;
2656;SDS011;1338;48.176;11.792;2024-02-14T00:13:37;3.20;;;2.97;;
2656;SDS011;1338;48.176;11.792;2024-02-14T00:16:06;3.33;;;3.03;;
2656;SDS011;1338;48.176;11.792;2024-02-14T00:18:34;3.20;;;2.67;;
2656;SDS011;1338;48.176;11.792;2024-02-14T00:21:03;3.23;;;2.93;;
2656;SDS011;1338;48.176;11.792;2024-02-14T00:23:32;3.43;;;3.13;;
2656;SDS011;1338;48.176;11.792;2024-02-14T00:26:01;3.10;;;2.80;;
2656;SDS011;1338;48.176;11.792;2024-02-14T00:28:29;4.80;;;3.20;;
2656;SDS011;1338;48.176;11.792;2024-02-14T00:30:57;3.50;;;3.17;;
2656;SDS011;1338;48.176;11.792;2024-02-14T00:33:26;3.23;;;2.90;;
2656;SDS011;1338;48.176;11.792;2024-02-14T00:35:54;3.50;;;3.20;;
2656;SDS011;1338;48.176;11.792;2024-02-14T00:38:22;2.93;;;2.73;;
2656;SDS011;1338;48.176;11.792;2024-02-14T00:40:52;4.13;;;3.73;;
2656;SDS011;1338;48.176;11.792;2024-02-14T00:43:20;4.07;;;3.30;;
2656;SDS011;1338;48.176;11.792;2024-02-14T00:45:48;3.20;;;2.90;;
2656;SDS011;1338;48.176;11.792;2024-02-14T00:48:16;3.67;;;3.17;;
2656;SDS011;1338;48.176;11.792;2024-02-14T00:50:45;4.33;;;3.30;;
2656;SDS011;1338;48.176;11.792;2024-02-14T00:53:13;2.90;;;2.60;;
2656;SDS011;1338;48.176;11.792;2024-02-14T00:55:41;3.20;;;2.90;;
2656;SDS011;1338;48.176;11.792;2024-02-14T00:58:11;3.30;;;3.00;;
2656;SDS011;1338;48.176;11.792;2024-02-14T01:00:39;3.23;;;2.83;;
2656;SDS011;1338;48.176;11.792;2024-02-14T01:03:07;3.23;;;2.93;;
2656;SDS011;1338;48.176;11.792;2024-02-14T01:05:39;2.90;;;2.70;;
2656;SDS011;1338;48.176;11.792;2024-02-14T01:08:07;3.70;;;3.17;;
2656;SDS011;1338;48.176;11.792;2024-02-14T01:10:35;3.80;;;3.10;;
2656;SDS011;1338;48.176;11.792;2024-02-14T01:13:03;3.23;;;2.73;;
2656;SDS011;1338;48.176;11.792;2024-02-14T01:15:34;2.80;;;2.60;;
2656;SDS011;1338;48.176;11.792;2024-02-14T01:18:02;2.70;;;2.50;;
2656;SDS011;1338;48.176;11.792;2024-02-14T01:20:30;3.30;;;3.00;;
2656;SDS011;1338;48.176;11.792;2024-02-14T01:22:58;3.27;;;2.77;;
2656;SDS011;1338;48.176;11.792;2024-02-14T01:25:26;3.20;;;2.90;;
2656;SDS011;1338;48.176;11.792;2024-02-14T01:27:55;2.70;;;2.50;;
2656;SDS011;1338;48.176;11.792;2024-02-14T01:30:24;3.00;;;2.70;;
2656;SDS011;1338;48.176;11.792;2024-02-14T01:32:54;2.77;;;2.57;;
2656;SDS011;1338;48.176;11.792;2024-02-14T01:35:22;3.30;;;2.70;;
2656;SDS011;1338;48.176;11.792;2024-02-14T01:37:50;2.70;;;2.50;;
2656;SDS011;1338;48.176;11.792;2024-02-14T01:40:19;2.87;;;2.67;;
2656;SDS011;1338;48.176;11.792;2024-02-14T01:42:47;2.50;;;2.30;;
2656;SDS011;1338;48.176;11.792;2024-02-14T01:45:15;3.30;;;2.67;;
2656;SDS011;1338;48.176;11.792;2024-02-14T01:47:43;3.30;;;2.73;;
2656;SDS011;1338;48.176;11.792;2024-02-14T01:50:13;2.80;;;2.30;;
2656;SDS011;1338;48.176;11.792;2024-02-14T01:52:41;3.03;;;2.43;;
2656;SDS011;1338;48.176;11.792;2024-02-14T01:55:10;2.97;;;2.53;;
2656;SDS011;1338;48.176;11.792;2024-02-14T01:57:39;3.17;;;2.83;;
2656;SDS011;1338;48.176;11.792;2024-02-14T02:00:08;2.50;;;2.30;;
2656;SDS011;1338;48.176;11.792;2024-02-14T02:02:41;2.73;;;2.53;;
2656;SDS011;1338;48.176;11.792;2024-02-14T02:05:16;2.70;;;2.30;;
2656;SDS011;1338;48.176;11.792;2024-02-14T02:07:45;3.00;;;2.80;;
2656;SDS011;1338;48.176;11.792;2024-02-14T02:10:15;2.30;;;2.20;;
2656;SDS011;1338;48.176;11.792;2024-02-14T02:12:43;2.50;;;2.30;;
2656;SDS011;1338;48.176;11.792;2024-02-14T02:15:11;2.50;;;2.30;;
2656;SDS011;1338;48.176;11.792;2024-02-14T02:17:41;4.97;;;2.73;;
2656;SDS011;1338;48.176;11.792;2024-02-14T02:20:12;2.50;;;2.30;;
2656;SDS011;1338;48.176;11.792;2024-02-14T02:22:44;3.53;;;2.70;;
2656;SDS011;1338;48.176;11.792;2024-02-14T02:25:14;2.83;;;2.57;;
2656;SDS011;1338;48.176;11.792;2024-02-14T02:27:43;2.50;;;2.27;;
2656;SDS011;1338;48.176;11.792;2024-02-14T02:30:11;2.27;;;2.03;;
2656;SDS011;1338;48.176;11.792;2024-02-14T02:32:41;2.50;;;2.30;;
2656;SDS011;1338;48.176;11.792;2024-02-14T02:35:10;2.20;;;2.00;;
2656;SDS011;1338;48.176;11.792;2024-02-14T02:37:38;2.33;;;2.10;;
2656;SDS011;1338;48.176;11.792;2024-02-14T02:40:08;2.30;;;2.10;;
2656;SDS011;1338;48.176;11.792;2024-02-14T02:42:37;2.60;;;2.40;;
2656;SDS011;1338;48.176;11.792;2024-02-14T02:45:05;2.00;;;1.90;;
2656;SDS011;1338;48.176;11.792;2024-02-14T02:47:35;2.53;;;2.27;;
2656;SDS011;1338;48.176;11.792;2024-02-14T02:50:03;2.20;;;2.00;;
2656;SDS011;1338;48.176;11.792;2024-02-14T02:52:32;2.10;;;2.00;;
2656;SDS011;1338;48.176;11.792;2024-02-14T02:55:00;2.40;;;2.20;;
2656;SDS011;1338;48.176;11.792;2024-02-14T02:57:30;3.17;;;2.13;;
2656;SDS011;1338;48.176;11.792;2024-02-14T02:59:58;3.67;;;2.30;;
2656;SDS011;1338;48.176;11.792;2024-02-14T03:02:27;4.30;;;2.77;;
2656;SDS011;1338;48.176;11.792;2024-02-14T03:04:55;1.90;;;1.80;;
2656;SDS011;1338;48.176;11.792;2024-02-14T03:07:25;2.90;;;2.03;;
2656;SDS011;1338;48.176;11.792;2024-02-14T03:09:53;2.20;;;2.00;;
2656;SDS011;1338;48.176;11.792;2024-02-14T03:12:21;2.37;;;2.10;;
2656;SDS011;1338;48.176;11.792;2024-02-14T03:14:51;2.30;;;2.00;;
2656;SDS011;1338;48.176;11.792;2024-02-14T03:17:19;2.07;;;1.87;;
2656;SDS011;1338;48.176;11.792;2024-02-14T03:19:47;2.70;;;2.50;;
2656;SDS011;1338;48.176;11.792;2024-02-14T03:22:18;2.10;;;1.90;;
2656;SDS011;1338;48.176;11.792;2024-02-14T03:24:47;2.20;;;2.00;;
2656;SDS011;1338;48.176;11.792;2024-02-14T03:27:15;2.20;;;2.10;;
2656;SDS011;1338;48.176;11.792;2024-02-14T03:29:45;2.20;;;2.00;;
2656;SDS011;1338;48.176;11.792;2024-02-14T03:32:15;2.23;;;2.03;;
2656;SDS011;1338;48.176;11.792;2024-02-14T03:34:43;1.97;;;1.87;;
2656;SDS011;1338;48.176;11.792;2024-02-14T03:37:12;2.67;;;2.47;;
2656;SDS011;1338;48.176;11.792;2024-02-14T03:39:41;2.87;;;2.63;;
2656;SDS011;1338;48.176;11.792;2024-02-14T03:42:09;3.23;;;2.10;;
2656;SDS011;1338;48.176;11.792;2024-02-14T03:44:37;2.13;;;1.80;;
2656;SDS011;1338;48.176;11.792;2024-02-14T03:47:07;3.20;;;1.83;;
2656;SDS011;1338;48.176;11.792;2024-02-14T03:49:36;2.47;;;2.10;;
2656;SDS011;1338;48.176;11.792;2024-02-14T03:52:05;2.63;;;1.93;;
2656;SDS011;1338;48.176;11.792;2024-02-14T03:54:36;2.20;;;2.10;;
2656;SDS011;1338;48.176;11.792;2024-02-14T03:57:04;2.07;;;1.87;;
2656;SDS011;1338;48.176;11.792;2024-02-14T03:59:35;1.87;;;1.77;;
2656;SDS011;1338;48.176;11.792;2024-02-14T04:02:05;2.00;;;1.90;;
2656;SDS011;1338;48.176;11.792;2024-02-14T04:04:37;11.73;;;2.83;;
2656;SDS011;1338;48.176;11.792;2024-02-14T04:07:06;2.00;;;1.90;;
2656;SDS011;1338;48.176;11.792;2024-02-14T04:09:36;2.27;;;2.07;;
2656;SDS011;1338;48.176;11.792;2024-02-14T04:12:04;2.10;;;2.00;;
2656;SDS011;1338;48.176;11.792;2024-02-14T04:14:33;1.90;;;1.80;;
2656;SDS011;1338;48.176;11.792;2024-02-14T04:17:02;2.17;;;1.90;;
2656;SDS011;1338;48.176;11.792;2024-02-14T04:19:31;2.30;;;2.10;;
2656;SDS011;1338;48.176;11.792;2024-02-14T04:22:01;2.20;;;2.00;;
2656;SDS011;1338;48.176;11.792;2024-02-14T04:24:29;3.20;;;2.00;;
2656;SDS011;1338;48.176;11.792;2024-02-14T04:27:00;1.80;;;1.70;;
2656;SDS011;1338;48.176;11.792;2024-02-14T04:29:29;2.90;;;1.97;;
2656;SDS011;1338;48.176;11.792;2024-02-14T04:32:00;2.07;;;1.80;;
2656;SDS011;1338;48.176;11.792;2024-02-14T04:34:29;1.90;;;1.80;;
2656;SDS011;1338;48.176;11.792;2024-02-14T04:36:57;1.90;;;1.80;;
2656;SDS011;1338;48.176;11.792;2024-02-14T04:39:27;1.90;;;1.80;;
2656;SDS011;1338;48.176;11.792;2024-02-14T04:41:55;2.07;;;1.87;;
2656;SDS011;1338;48.176;11.792;2024-02-14T04:44:28;3.00;;;2.17;;
2656;SDS011;1338;48.176;11.792;2024-02-14T04:46:56;1.90;;;1.80;;
2656;SDS011;1338;48.176;11.792;2024-02-14T04:49:26;2.10;;;1.90;;
2656;SDS011;1338;48.176;11.792;2024-02-14T04:51:56;2.33;;;2.13;;
2656;SDS011;1338;48.176;11.792;2024-02-14T04:54:25;2.77;;;1.90;;
2656;SDS011;1338;48.176;11.792;2024-02-14T04:56:55;2.50;;;2.30;;
2656;SDS011;1338;48.176;11.792;2024-02-14T04:59:28;2.83;;;2.27;;
2656;SDS011;1338;48.176;11.792;2024-02-14T05:01:56;2.93;;;2.17;;
2656;SDS011;1338;48.176;11.792;2024-02-14T05:04:25;2.97;;;2.00;;
2656;SDS011;1338;48.176;11.792;2024-02-14T05:06:54;2.83;;;2.10;;
2656;SDS011;1338;48.176;11.792;2024-02-14T05:09:25;2.13;;;1.90;;
2656;SDS011;1338;48.176;11.792;2024-02-14T05:11:53;2.83;;;2.63;;
2656;SDS011;1338;48.176;11.792;2024-02-14T05:14:23;2.43;;;2.23;;
2656;SDS011;1338;48.176;11.792;2024-02-14T05:16:51;1.90;;;1.77;;
2656;SDS011;1338;48.176;11.792;2024-02-14T05:19:19;2.10;;;1.90;;
2656;SDS011;1338;48.176;11.792;2024-02-14T05:21:48;3.10;;;2.23;;
2656;SDS011;1338;48.176;11.792;2024-02-14T05:24:17;2.33;;;2.10;;
2656;SDS011;1338;48.176;11.792;2024-02-14T05:26:45;4.13;;;2.30;;
2656;SDS011;1338;48.176;11.792;2024-02-14T05:29:14;3.00;;;2.80;;
2656;SDS011;1338;48.176;11.792;2024-02-14T05:31:46;2.63;;;2.40;;
2656;SDS011;1338;48.176;11.792;2024-02-14T05:34:15;3.40;;;2.30;;
2656;SDS011;1338;48.176;11.792;2024-02-14T05:36:44;5.30;;;2.07;;
2656;SDS011;1338;48.176;11.792;2024-02-14T05:39:13;2.53;;;1.70;;
2656;SDS011;1338;48.176;11.792;2024-02-14T05:41:42;2.20;;;2.00;;
2656;SDS011;1338;48.176;11.792;2024-02-14T05:44:11;2.40;;;2.20;;
2656;SDS011;1338;48.176;11.792;2024-02-14T05:46:39;2.37;;;2.00;;
2656;SDS011;1338;48.176;11.792;2024-02-14T05:49:09;2.30;;;2.10;;
2656;SDS011;1338;48.176;11.792;2024-02-14T05:51:37;2.10;;;2.00;;
2656;SDS011;1338;48.176;11.792;2024-02-14T05:54:06;3.00;;;2.73;;
2656;SDS011;1338;48.176;11.792;2024-02-14T05:56:34;3.80;;;3.50;;
2656;SDS011;1338;48.176;11.792;2024-02-14T05:59:02;3.63;;;3.33;;
2656;SDS011;1338;48.176;11.792;2024-02-14T06:01:30;3.20;;;2.90;;
2656;SDS011;1338;48.176;11.792;2024-02-14T06:03:59;3.23;;;2.93;;
2656;SDS011;1338;48.176;11.792;2024-02-14T06:06:28;2.90;;;2.37;;
2656;SDS011;1338;48.176;11.792;2024-02-14T06:08:57;3.57;;;3.03;;
2656;SDS011;1338;48.176;11.792;2024-02-14T06:11:25;13.97;;;12.13;;
2656;SDS011;1338;48.176;11.792;2024-02-14T06:13:53;8.50;;;6.03;;
2656;SDS011;1338;48.176;11.792;2024-02-14T06:16:21;9.40;;;7.70;;
2656;SDS011;1338;48.176;11.792;2024-02-14T06:18:49;5.00;;;4.20;;
2656;SDS011;1338;48.176;11.792;2024-02-14T06:21:18;4.77;;;2.90;;
2656;SDS011;1338;48.176;11.792;2024-02-14T06:23:47;3.20;;;3.00;;
2656;SDS011;1338;48.176;11.792;2024-02-14T06:26:16;5.90;;;4.40;;
2656;SDS011;1338;48.176;11.792;2024-02-14T06:28:44;6.63;;;4.40;;
2656;SDS011;1338;48.176;11.792;2024-02-14T06:31:13;5.23;;;3.50;;
2656;SDS011;1338;48.176;11.792;2024-02-14T06:33:41;5.23;;;4.00;;
2656;SDS011;1338;48.176;11.792;2024-02-14T06:36:10;5.40;;;4.70;;
2656;SDS011;1338;48.176;11.792;2024-02-14T06:38:38;4.17;;;2.90;;
2656;SDS011;1338;48.176;11.792;2024-02-14T06:41:08;6.73;;;4.10;;
2656;SDS011;1338;48.176;11.792;2024-02-14T06:43:36;5.93;;;4.77;;
2656;SDS011;1338;48.176;11.792;2024-02-14T06:46:05;5.23;;;4.83;;
2656;SDS011;1338;48.176;11.792;2024-02-14T06:48:33;3.97;;;3.57;;
2656;SDS011;1338;48.176;11.792;2024-02-14T06:51:02;4.47;;;3.20;;
2656;SDS011;1338;48.176;11.792;2024-02-14T06:53:31;3.27;;;2.60;;
2656;SDS011;1338;48.176;11.792;2024-02-14T06:55:59;4.67;;;2.37;;
2656;SDS011;1338;48.176;11.792;2024-02-14T06:58:28;2.20;;;2.10;;
2656;SDS011;1338;48.176;11.792;2024-02-14T07:00:57;2.77;;;2.30;;
2656;SDS011;1338;48.176;11.792;2024-02-14T07:03:26;2.77;;;2.50;;
2656;SDS011;1338;48.176;11.792;2024-02-14T07:05:55;3.50;;;2.30;;
2656;SDS011;1338;48.176;11.792;2024-02-14T07:08:23;5.33;;;2.63;;
2656;SDS011;1338;48.176;11.792;2024-02-14T07:10:54;4.43;;;2.50;;
2656;SDS011;1338;48.176;11.792;2024-02-14T07:13:22;2.57;;;2.10;;
2656;SDS011;1338;48.176;11.792;2024-02-14T07:15:52;3.60;;;2.00;;
2656;SDS011;1338;48.176;11.792;2024-02-14T07:18:20;9.00;;;2.63;;
2656;SDS011;1338;48.176;11.792;2024-02-14T07:20:49;3.27;;;2.20;;
2656;SDS011;1338;48.176;11.792;2024-02-14T07:23:18;2.27;;;2.10;;
2656;SDS011;1338;48.176;11.792;2024-02-14T07:25:46;3.20;;;2.90;;
2656;SDS011;1338;48.176;11.792;2024-02-14T07:28:14;3.53;;;2.70;;
2656;SDS011;1338;48.176;11.792;2024-02-14T07:30:43;3.80;;;3.50;;
2656;SDS011;1338;48.176;11.792;2024-02-14T07:33:13;4.83;;;4.53;;
2656;SDS011;1338;48.176;11.792;2024-02-14T07:35:41;5.83;;;4.30;;
2656;SDS011;1338;48.176;11.792;2024-02-14T07:38:10;4.97;;;2.57;;
2656;SDS011;1338;48.176;11.792;2024-02-14T07:40:38;3.10;;;2.27;;
2656;SDS011;1338;48.176;11.792;2024-02-14T07:43:06;3.80;;;2.23;;
2656;SDS011;1338;48.176;11.792;2024-02-14T07:45:34;2.53;;;2.00;;
2656;SDS011;1338;48.176;11.792;2024-02-14T07:48:02;2.50;;;2.20;;
2656;SDS011;1338;48.176;11.792;2024-02-14T07:50:32;3.10;;;2.30;;
2656;SDS011;1338;48.176;11.792;2024-02-14T07:53:01;3.30;;;2.03;;
2656;SDS011;1338;48.176;11.792;2024-02-14T07:55:29;4.30;;;2.90;;
2656;SDS011;1338;48.176;11.792;2024-02-14T07:57:57;2.70;;;2.37;;
2656;SDS011;1338;48.176;11.792;2024-02-14T08:00:27;3.20;;;2.10;;
2656;SDS011;1338;48.176;11.792;2024-02-14T08:02:55;2.53;;;2.27;;
2656;SDS011;1338;48.176;11.792;2024-02-14T08:05:23;2.33;;;2.03;;
2656;SDS011;1338;48.176;11.792;2024-02-14T08:07:53;2.20;;;2.00;;
2656;SDS011;1338;48.176;11.792;2024-02-14T08:10:21;2.40;;;2.00;;
2656;SDS011;1338;48.176;11.792;2024-02-14T08:12:49;2.10;;;1.90;;
2656;SDS011;1338;48.176;11.792;2024-02-14T08:15:17;3.43;;;2.37;;
2656;SDS011;1338;48.176;11.792;2024-02-14T08:17:46;2.50;;;2.30;;
2656;SDS011;1338;48.176;11.792;2024-02-14T08:20:15;2.53;;;2.27;;
2656;SDS011;1338;48.176;11.792;2024-02-14T08:22:44;2.50;;;2.30;;
2656;SDS011;1338;48.176;11.792;2024-02-14T08:25:14;2.83;;;2.10;;
2656;SDS011;1338;48.176;11.792;2024-02-14T08:27:42;1.80;;;1.70;;
2656;SDS011;1338;48.176;11.792;2024-02-14T08:30:10;2.50;;;2.00;;
2656;SDS011;1338;48.176;11.792;2024-02-14T08:32:39;1.83;;;1.73;;
2656;SDS011;1338;48.176;11.792;2024-02-14T08:35:07;3.17;;;2.00;;
2656;SDS011;1338;48.176;11.792;2024-02-14T08:37:36;2.73;;;2.20;;
2656;SDS011;1338;48.176;11.792;2024-02-14T08:40:07;2.70;;;2.20;;
2656;SDS011;1338;48.176;11.792;2024-02-14T08:42:37;3.00;;;2.50;;
2656;SDS011;1338;48.176;11.792;2024-02-14T08:45:06;2.73;;;2.40;;
2656;SDS011;1338;48.176;11.792;2024-02-14T08:47:36;2.90;;;2.13;;
2656;SDS011;1338;48.176;11.792;2024-02-14T08:50:05;3.57;;;2.20;;
2656;SDS011;1338;48.176;11.792;2024-02-14T08:52:34;2.50;;;2.30;;
2656;SDS011;1338;48.176;11.792;2024-02-14T08:55:04;2.97;;;2.07;;
2656;SDS011;1338;48.176;11.792;2024-02-14T08:57:38;2.10;;;1.90;;
2656;SDS011;1338;48.176;11.792;2024-02-14T09:00:07;2.20;;;2.00;;
2656;SDS011;1338;48.176;11.792;2024-02-14T09:02:37;2.40;;;2.10;;
2656;SDS011;1338;48.176;11.792;2024-02-14T09:05:05;2.43;;;2.23;;
2656;SDS011;1338;48.176;11.792;2024-02-14T09:07:34;3.33;;;2.60;;
2656;SDS011;1338;48.176;11.792;2024-02-14T09:10:03;3.03;;;2.40;;
2656;SDS011;1338;48.176;11.792;2024-02-14T09:12:32;2.43;;;2.23;;
2656;SDS011;1338;48.176;11.792;2024-02-14T09:15:02;2.50;;;2.30;;
2656;SDS011;1338;48.176;11.792;2024-02-14T09:17:31;2.50;;;2.30;;
2656;SDS011;1338;48.176;11.792;2024-02-14T09:19:59;2.43;;;2.23;;
2656;SDS011;1338;48.176;11.792;2024-02-14T09:22:28;2.90;;;2.40;;
2656;SDS011;1338;48.176;11.792;2024-02-14T09:24:57;3.30;;;2.20;;
2656;SDS011;1338;48.176;11.792;2024-02-14T09:27:25;4.00;;;2.43;;
2656;SDS011;1338;48.176;11.792;2024-02-14T09:29:53;2.50;;;2.30;;
2656;SDS011;1338;48.176;11.792;2024-02-14T09:32:22;2.63;;;2.43;;
2656;SDS011;1338;48.176;11.792;2024-02-14T09:34:50;2.70;;;2.20;;
2656;SDS011;1338;48.176;11.792;2024-02-14T09:37:19;2.73;;;2.53;;
2656;SDS011;1338;48.176;11.792;2024-02-14T09:39:47;2.70;;;2.47;;
2656;SDS011;1338;48.176;11.792;2024-02-14T09:42:16;2.30;;;2.10;;
2656;SDS011;1338;48.176;11.792;2024-02-14T09:44:46;4.33;;;2.07;;
2656;SDS011;1338;48.176;11.792;2024-02-14T09:47:19;3.63;;;2.23;;
2656;SDS011;1338;48.176;11.792;2024-02-14T09:49:50;3.40;;;2.43;;
2656;SDS011;1338;48.176;11.792;2024-02-14T09:52:20;3.10;;;2.53;;
2656;SDS011;1338;48.176;11.792;2024-02-14T09:54:50;2.90;;;2.30;;
2656;SDS011;1338;48.176;11.792;2024-02-14T09:57:19;3.87;;;2.50;;
2656;SDS011;1338;48.176;11.792;2024-02-14T09:59:49;2.30;;;2.10;;
2656;SDS011;1338;48.176;11.792;2024-02-14T10:02:19;3.10;;;2.30;;
2656;SDS011;1338;48.176;11.792;2024-02-14T10:04:47;2.47;;;2.27;;
2656;SDS011;1338;48.176;11.792;2024-02-14T10:07:17;2.40;;;2.20;;
2656;SDS011;1338;48.176;11.792;2024-02-14T10:09:46;2.60;;;2.33;;
2656;SDS011;1338;48.176;11.792;2024-02-14T10:12:15;2.77;;;1.90;;
2656;SDS011;1338;48.176;11.792;2024-02-14T10:14:44;3.73;;;2.03;;
2656;SDS011;1338;48.176;11.792;2024-02-14T10:17:17;3.00;;;1.90;;
2656;SDS011;1338;48.176;11.792;2024-02-14T10:19:54;5.23;;;2.13;;
2656;SDS011;1338;48.176;11.792;2024-02-14T10:22:25;3.13;;;2.83;;
2656;SDS011;1338;48.176;11.792;2024-02-14T10:24:59;2.50;;;2.00;;
2656;SDS011;1338;48.176;11.792;2024-02-14T10:27:27;3.00;;;2.10;;
2656;SDS011;1338;48.176;11.792;2024-02-14T10:29:57;2.40;;;2.20;;
2656;SDS011;1338;48.176;11.792;2024-02-14T10:32:27;2.10;;;1.90;;
2656;SDS011;1338;48.176;11.792;2024-02-14T10:34:55;2.50;;;2.30;;
2656;SDS011;1338;48.176;11.792;2024-02-14T10:37:25;2.60;;;2.00;;
2656;SDS011;1338;48.176;11.792;2024-02-14T10:39:56;2.30;;;2.10;;
2656;SDS011;1338;48.176;11.792;2024-02-14T10:42:28;2.50;;;2.30;;
2656;SDS011;1338;48.176;11.792;2024-02-14T10:44:56;1.80;;;1.70;;
2656;SDS011;1338;48.176;11.792;2024-02-14T10:47:24;3.30;;;1.80;;
2656;SDS011;1338;48.176;11.792;2024-02-14T10:49:57;2.57;;;2.37;;
2656;SDS011;1338;48.176;11.792;2024-02-14T10:52:31;2.10;;;1.90;;
2656;SDS011;1338;48.176;11.792;2024-02-14T10:55:04;1.87;;;1.73;;
2656;SDS011;1338;48.176;11.792;2024-02-14T10:57:33;1.73;;;1.60;;
2656;SDS011;1338;48.176;11.792;2024-02-14T11:00:02;2.47;;;2.00;;
2656;SDS011;1338;48.176;11.792;2024-02-14T11:02:34;2.27;;;2.00;;
2656;SDS011;1338;48.176;11.792;2024-02-14T11:05:03;2.17;;;1.97;;
2656;SDS011;1338;48.176;11.792;2024-02-14T11:07:34;2.27;;;1.80;;
2656;SDS011;1338;48.176;11.792;2024-02-14T11:10:06;1.97;;;1.50;;
2656;SDS011;1338;48.176;11.792;2024-02-14T11:12:36;2.97;;;2.00;;
2656;SDS011;1338;48.176;11.792;2024-02-14T11:15:09;2.13;;;1.97;;
2656;SDS011;1338;48.176;11.792;2024-02-14T11:17:38;1.80;;;1.70;;
2656;SDS011;1338;48.176;11.792;2024-02-14T11:20:12;1.97;;;1.80;;
2656;SDS011;1338;48.176;11.792;2024-02-14T11:22:55;2.77;;;1.80;;
2656;SDS011;1338;48.176;11.792;2024-02-14T11:25:30;2.17;;;1.97;;
2656;SDS011;1338;48.176;11.792;2024-02-14T11:28:01;2.40;;;2.00;;
2656;SDS011;1338;48.176;11.792;2024-02-14T11:30:41;2.20;;;2.00;;
2656;SDS011;1338;48.176;11.792;2024-02-14T11:33:13;3.53;;;2.07;;
2656;SDS011;1338;48.176;11.792;2024-02-14T11:35:46;2.40;;;2.00;;
2656;SDS011;1338;48.176;11.792;2024-02-14T11:38:17;3.40;;;2.20;;
2656;SDS011;1338;48.176;11.792;2024-02-14T11:40:46;2.20;;;1.93;;
2656;SDS011;1338;48.176;11.792;2024-02-14T11:43:15;1.83;;;1.73;;
2656;SDS011;1338;48.176;11.792;2024-02-14T11:45:45;1.50;;;1.40;;
2656;SDS011;1338;48.176;11.792;2024-02-14T11:48:16;2.00;;;1.60;;
2656;SDS011;1338;48.176;11.792;2024-02-14T11:50:46;2.03;;;1.53;;
2656;SDS011;1338;48.176;11.792;2024-02-14T11:53:15;1.73;;;1.63;;
2656;SDS011;1338;48.176;11.792;2024-02-14T11:55:46;1.80;;;1.70;;
2656;SDS011;1338;48.176;11.792;2024-02-14T11:58:15;2.10;;;1.70;;
2656;SDS011;1338;48.176;11.792;2024-02-14T12:00:45;1.60;;;1.50;;
2656;SDS011;1338;48.176;11.792;2024-02-14T12:03:15;3.20;;;1.90;;
2656;SDS011;1338;48.176;11.792;2024-02-14T12:05:45;1.80;;;1.70;;
2656;SDS011;1338;48.176;11.792;2024-02-14T12:08:15;1.40;;;1.30;;
2656;SDS011;1338;48.176;11.792;2024-02-14T12:10:44;3.07;;;1.63;;
2656;SDS011;1338;48.176;11.792;2024-02-14T12:13:17;1.43;;;1.33;;
2656;SDS011;1338;48.176;11.792;2024-02-14T12:15:47;2.53;;;1.80;;
2656;SDS011;1338;48.176;11.792;2024-02-14T12:18:17;4.53;;;1.93;;
2656;SDS011;1338;48.176;11.792;2024-02-14T12:20:46;2.23;;;1.70;;
2656;SDS011;1338;48.176;11.792;2024-02-14T12:23:22;1.73;;;1.50;;
2656;SDS011;1338;48.176;11.792;2024-02-14T12:25:54;3.93;;;1.70;;
2656;SDS011;1338;48.176;11.792;2024-02-14T12:28:29;1.80;;;1.70;;
2656;SDS011;1338;48.176;11.792;2024-02-14T12:30:58;2.10;;;1.80;;
2656;SDS011;1338;48.176;11.792;2024-02-14T12:33:26;2.00;;;1.90;;
2656;SDS011;1338;48.176;11.792;2024-02-14T12:35:57;1.70;;;1.60;;
2656;SDS011;1338;48.176;11.792;2024-02-14T12:38:25;1.50;;;1.40;;
2656;SDS011;1338;48.176;11.792;2024-02-14T12:40:55;1.77;;;1.40;;
2656;SDS011;1338;48.176;11.792;2024-02-14T12:43:23;1.60;;;1.43;;
2656;SDS011;1338;48.176;11.792;2024-02-14T12:45:51;3.93;;;1.60;;
2656;SDS011;1338;48.176;11.792;2024-02-14T12:48:21;1.83;;;1.73;;
2656;SDS011;1338;48.176;11.792;2024-02-14T12:50:50;1.63;;;1.53;;
2656;SDS011;1338;48.176;11.792;2024-02-14T12:53:19;2.43;;;1.67;;
2656;SDS011;1338;48.176;11.792;2024-02-14T12:55:47;1.70;;;1.53;;
2656;SDS011;1338;48.176;11.792;2024-02-14T12:58:17;1.67;;;1.57;;
2656;SDS011;1338;48.176;11.792;2024-02-14T13:00:45;2.07;;;1.70;;
2656;SDS011;1338;48.176;11.792;2024-02-14T13:03:14;3.00;;;1.70;;
2656;SDS011;1338;48.176;11.792;2024-02-14T13:05:44;2.20;;;2.00;;
2656;SDS011;1338;48.176;11.792;2024-02-14T13:08:14;3.40;;;2.30;;
2656;SDS011;1338;48.176;11.792;2024-02-14T13:10:43;5.80;;;2.00;;
2656;SDS011;1338;48.176;11.792;2024-02-14T13:13:11;1.90;;;1.70;;
2656;SDS011;1338;48.176;11.792;2024-02-14T13:15:42;1.77;;;1.60;;
2656;SDS011;1338;48.176;11.792;2024-02-14T13:18:11;1.87;;;1.73;;
2656;SDS011;1338;48.176;11.792;2024-02-14T13:20:40;1.60;;;1.50;;
2656;SDS011;1338;48.176;11.792;2024-02-14T13:23:10;1.70;;;1.60;;
2656;SDS011;1338;48.176;11.792;2024-02-14T13:25:41;1.87;;;1.73;;
2656;SDS011;1338;48.176;11.792;2024-02-14T13:28:09;1.97;;;1.63;;
2656;SDS011;1338;48.176;11.792;2024-02-14T13:30:37;1.63;;;1.53;;
2656;SDS011;1338;48.176;11.792;2024-02-14T13:33:07;1.70;;;1.60;;
2656;SDS011;1338;48.176;11.792;2024-02-14T13:35:36;1.93;;;1.73;;
2656;SDS011;1338;48.176;11.792;2024-02-14T13:38:06;2.90;;;2.00;;
2656;SDS011;1338;48.176;11.792;2024-02-14T13:40:36;1.73;;;1.50;;
2656;SDS011;1338;48.176;11.792;2024-02-14T13:43:04;1.67;;;1.57;;
2656;SDS011;1338;48.176;11.792;2024-02-14T13:45:39;1.60;;;1.50;;
2656;SDS011;1338;48.176;11.792;2024-02-14T13:48:11;1.80;;;1.70;;
2656;SDS011;1338;48.176;11.792;2024-02-14T13:50:39;1.87;;;1.67;;
2656;SDS011;1338;48.176;11.792;2024-02-14T13:53:09;2.53;;;1.70;;
2656;SDS011;1338;48.176;11.792;2024-02-14T13:55:38;3.00;;;2.17;;
2656;SDS011;1338;48.176;11.792;2024-02-14T13:58:06;2.27;;;1.80;;
2656;SDS011;1338;48.176;11.792;2024-02-14T14:00:41;2.53;;;1.77;;
2656;SDS011;1338;48.176;11.792;2024-02-14T14:03:11;1.90;;;1.40;;
2656;SDS011;1338;48.176;11.792;2024-02-14T14:05:39;1.77;;;1.67;;
2656;SDS011;1338;48.176;11.792;2024-02-14T14:08:08;1.93;;;1.73;;
2656;SDS011;1338;48.176;11.792;2024-02-14T14:10:36;1.60;;;1.50;;
2656;SDS011;1338;48.176;11.792;2024-02-14T14:13:04;1.73;;;1.63;;
2656;SDS011;1338;48.176;11.792;2024-02-14T14:15:32;1.50;;;1.40;;
2656;SDS011;1338;48.176;11.792;2024-02-14T14:18:00;2.00;;;1.90;;
2656;SDS011;1338;48.176;11.792;2024-02-14T14:20:30;1.83;;;1.73;;
2656;SDS011;1338;48.176;11.792;2024-02-14T14:22:59;2.00;;;1.80;;
2656;SDS011;1338;48.176;11.792;2024-02-14T14:25:29;2.67;;;1.80;;
2656;SDS011;1338;48.176;11.792;2024-02-14T14:27:58;1.90;;;1.80;;
2656;SDS011;1338;48.176;11.792;2024-02-14T14:30:27;1.73;;;1.63;;
2656;SDS011;1338;48.176;11.792;2024-02-14T14:32:55;2.60;;;1.90;;
2656;SDS011;1338;48.176;11.792;2024-02-14T14:35:23;1.87;;;1.77;;
2656;SDS011;1338;48.176;11.792;2024-02-14T14:37:53;2.73;;;2.00;;
2656;SDS011;1338;48.176;11.792;2024-02-14T14:40:21;2.17;;;1.90;;
2656;SDS011;1338;48.176;11.792;2024-02-14T14:42:51;2.30;;;2.10;;
2656;SDS011;1338;48.176;11.792;2024-02-14T14:45:19;2.57;;;2.10;;
2656;SDS011;1338;48.176;11.792;2024-02-14T14:47:47;1.80;;;1.70;;
2656;SDS011;1338;48.176;11.792;2024-02-14T14:50:16;3.40;;;1.90;;
2656;SDS011;1338;48.176;11.792;2024-02-14T14:52:45;1.80;;;1.70;;
2656;SDS011;1338;48.176;11.792;2024-02-14T14:55:15;1.80;;;1.70;;
2656;SDS011;1338;48.176;11.792;2024-02-14T14:57:43;1.93;;;1.73;;
2656;SDS011;1338;48.176;11.792;2024-02-14T15:00:12;1.90;;;1.80;;
2656;SDS011;1338;48.176;11.792;2024-02-14T15:02:41;2.13;;;1.80;;
2656;SDS011;1338;48.176;11.792;2024-02-14T15:05:10;1.80;;;1.70;;
2656;SDS011;1338;48.176;11.792;2024-02-14T15:07:39;3.40;;;1.93;;
2656;SDS011;1338;48.176;11.792;2024-02-14T15:10:07;1.60;;;1.50;;
2656;SDS011;1338;48.176;11.792;2024-02-14T15:12:37;1.70;;;1.60;;